Terminal Aerodrome Forecast
Issued by NWS Jacksonville, FL

Home | Current Version | Previous Version | Text Only | Print | Product List | Glossary On
Versions: 1 2 3 4 5 6 7 8 9 10 11 12 13 14 15 16 17 18 19 20 21 22 23 24 25 26 27 28 29 30 31
000
FTUS42 KJAX 042326
TAFJAX
TAF
KJAX 042326Z 0500/0524 VRB06KT 6SM TSRA SCT045CB BKN250
      TEMPO 0500/0501 VRB10G22KT 2SM TSRA OVC030CB
     FM050200 00000KT P6SM FEW040 SCT250
     FM051300 06008KT P6SM VCSH SCT020 BKN040
     FM051700 06012KT P6SM VCTS BKN040CB BKN250=

USA.gov is the U.S. government's official web portal to all federal, state and local government web resources and services.